Time;durP1;ratioP1;P1;durP2;ratioP2;P2;SDS_P1;SDS_P2;PMS_P1;PMS_P2;Temp;Humidity;BMP_temperature;BMP_pressure;BME280_temperature;BME280_humidity;BME280_pressure;Samples;Min_cycle;Max_cycle;Signal;HPM_P1;HPM_P2
2021/12/28 00:02:34;;;;;;;13.38;6.47;;;;;;;-148.16;100.00;58328.31;5039451;28;20481;-60
2021/12/28 00:05:20;;;;;;;14.63;7.57;;;;;;;-148.16;100.00;58328.31;5033305;28;20054;-59
2021/12/28 00:08:06;;;;;;;13.90;6.82;;;;;;;-148.16;100.00;58328.31;5033052;28;20092;-60
2021/12/28 00:10:53;;;;;;;14.10;6.10;;;;;;;-148.16;100.00;58328.31;5033797;28;20053;-60
2021/12/28 00:13:40;;;;;;;14.55;6.78;;;;;;;-148.16;100.00;58328.31;5037920;28;20053;-60
2021/12/28 00:17:58;;;;;;;14.57;7.03;;;;;;;-148.16;100.00;58328.31;5033356;28;20443;-60
2021/12/28 00:19:38;;;;;;;;;;;;;;;-148.16;100.00;58328.31;5033978;28;20041;-61
2021/12/28 00:22:23;;;;;;;13.73;6.57;;;;;;;-148.16;100.00;58328.31;5033316;28;19917;-60
2021/12/28 00:25:11;;;;;;;12.25;6.38;;;;;;;-148.16;100.00;58328.31;5032326;28;20049;-60
2021/12/28 00:27:57;;;;;;;15.57;7.03;;;;;;;-148.16;100.00;58328.31;5031985;28;20046;-60
2021/12/28 00:30:45;;;;;;;14.93;6.55;;;;;;;-148.16;100.00;58328.31;5038134;28;20045;-60
2021/12/28 00:33:31;;;;;;;13.07;5.55;;;;;;;-148.16;100.00;58328.31;5032383;28;20061;-59
2021/12/28 00:36:17;;;;;;;13.75;6.60;;;;;;;-148.16;100.00;58328.31;5023811;28;20412;-61
2021/12/28 00:39:03;;;;;;;15.63;6.28;;;;;;;-148.16;100.00;58328.31;5033226;28;20049;-60
2021/12/28 00:41:49;;;;;;;14.13;5.97;;;;;;;-148.16;100.00;58328.31;5033197;28;20473;-61
2021/12/28 00:44:35;;;;;;;11.60;5.75;;;;;;;-148.16;100.00;58328.31;5032599;28;20041;-60
2021/12/28 00:47:21;;;;;;;10.82;6.05;;;;;;;-148.16;100.00;58328.31;5033036;28;20401;-60
2021/12/28 00:50:10;;;;;;;14.57;6.38;;;;;;;-148.16;100.00;58328.31;5037588;28;20042;-60
2021/12/28 00:52:56;;;;;;;15.13;5.63;;;;;;;-148.16;100.00;58328.31;5032741;28;20492;-60
2021/12/28 00:55:42;;;;;;;14.65;6.95;;;;;;;-148.16;100.00;58328.31;5031790;28;20053;-60
2021/12/28 00:58:29;;;;;;;17.10;7.03;;;;;;;-148.16;100.00;58328.31;5037496;28;20046;-60
2021/12/28 01:01:15;;;;;;;13.90;6.78;;;;;;;-148.16;100.00;58328.31;5032765;28;20045;-58
2021/12/28 01:04:00;;;;;;;15.50;7.75;;;;;;;-148.16;100.00;58328.31;5032499;28;20037;-59
2021/12/28 01:06:47;;;;;;;12.07;7.15;;;;;;;-148.16;100.00;58328.31;5032908;28;20041;-60
2021/12/28 01:09:33;;;;;;;16.17;6.90;;;;;;;-148.16;100.00;58328.31;5032731;28;20049;-60
2021/12/28 01:12:19;;;;;;;14.10;6.90;;;;;;;-148.16;100.00;58328.31;5035174;28;20401;-59
2021/12/28 01:15:08;;;;;;;17.88;7.85;;;;;;;-148.16;100.00;58328.31;5028892;28;20484;-59
2021/12/28 01:17:56;;;;;;;14.05;6.53;;;;;;;-148.16;100.00;58328.31;5032448;28;20433;-60
2021/12/28 01:20:42;;;;;;;16.65;8.07;;;;;;;-148.16;100.00;58328.31;5032543;28;20045;-60
2021/12/28 01:23:28;;;;;;;15.52;7.45;;;;;;;-148.16;100.00;58328.31;5036999;28;20049;-60
2021/12/28 01:26:14;;;;;;;17.75;8.18;;;;;;;-148.16;100.00;58328.31;5035128;28;20045;-59
2021/12/28 01:29:00;;;;;;;18.13;8.00;;;;;;;-148.16;100.00;58328.31;5041244;28;20049;-59
2021/12/28 01:31:45;;;;;;;15.95;7.82;;;;;;;-148.16;100.00;58328.31;5036135;28;20049;-59
2021/12/28 01:34:31;;;;;;;17.42;8.68;;;;;;;-148.16;100.00;58328.31;5021333;28;20053;-60
2021/12/28 01:37:17;;;;;;;19.35;8.10;;;;;;;-148.16;100.00;58328.31;5036183;28;20481;-60
2021/12/28 01:40:06;;;;;;;16.90;8.55;;;;;;;-148.16;100.00;58328.31;5035055;28;20493;-60
2021/12/28 01:43:07;;;;;;;19.88;8.20;;;;;;;-148.16;100.00;58328.31;5036471;28;20050;-60
2021/12/28 01:46:02;;;;;;;15.73;8.03;;;;;;;-148.16;100.00;58328.31;5033409;28;20088;-60
2021/12/28 01:48:47;;;;;;;18.08;8.98;;;;;;;-148.16;100.00;58328.31;5031163;28;20054;-60
2021/12/28 01:51:33;;;;;;;15.55;8.40;;;;;;;-148.16;100.00;58328.31;5035971;28;20049;-60
2021/12/28 01:54:20;;;;;;;21.77;9.30;;;;;;;-148.16;100.00;58328.31;5035786;28;20485;-59
2021/12/28 01:57:06;;;;;;;16.73;8.07;;;;;;;-148.16;100.00;58328.31;5034722;28;20049;-59
2021/12/28 01:59:52;;;;;;;20.63;8.75;;;;;;;-148.16;100.00;58328.31;5035874;28;20052;-59
2021/12/28 02:02:37;;;;;;;18.50;8.52;;;;;;;-148.16;100.00;58328.31;5036157;28;20476;-59
2021/12/28 02:05:25;;;;;;;17.38;8.80;;;;;;;-148.16;100.00;58328.31;5036045;28;20041;-59
2021/12/28 02:08:15;;;;;;;18.92;8.68;;;;;;;-148.16;100.00;58328.31;5035334;28;20053;-59
2021/12/28 02:11:01;;;;;;;18.88;8.50;;;;;;;-148.16;100.00;58328.31;5035798;28;20041;-59
2021/12/28 02:13:48;;;;;;;20.27;8.95;;;;;;;-148.16;100.00;58328.31;5034839;28;20057;-59
2021/12/28 02:16:35;;;;;;;19.40;8.32;;;;;;;-148.16;100.00;58328.31;5035498;28;20049;-59
2021/12/28 02:19:21;;;;;;;14.20;8.25;;;;;;;-148.16;100.00;58328.31;5035539;28;20480;-59
2021/12/28 02:22:07;;;;;;;23.75;9.70;;;;;;;-148.16;100.00;58328.31;5035400;28;20404;-60
2021/12/28 02:24:53;;;;;;;18.33;8.63;;;;;;;-148.16;100.00;58328.31;5040368;28;20041;-59
2021/12/28 02:27:39;;;;;;;16.40;7.90;;;;;;;-148.16;100.00;58328.31;5035527;28;20050;-60
2021/12/28 02:30:25;;;;;;;19.30;8.75;;;;;;;-148.16;100.00;58328.31;5035441;28;20657;-60
2021/12/28 02:33:12;;;;;;;20.08;8.75;;;;;;;-148.16;100.00;58328.31;5041029;28;20038;-60
2021/12/28 02:36:01;;;;;;;24.35;8.65;;;;;;;-148.16;100.00;58328.31;5034780;28;20049;-60
2021/12/28 02:38:48;;;;;;;18.10;8.75;;;;;;;-148.16;100.00;58328.31;5034930;28;20049;-60
2021/12/28 02:41:33;;;;;;;17.52;8.75;;;;;;;-148.16;100.00;58328.31;5035162;28;20057;-60
2021/12/28 02:44:19;;;;;;;19.83;8.68;;;;;;;-148.16;100.00;58328.31;5035080;28;20046;-60
2021/12/28 02:47:05;;;;;;;17.67;8.52;;;;;;;-148.16;100.00;58328.31;5034788;28;20041;-61
2021/12/28 02:49:51;;;;;;;17.63;8.73;;;;;;;-148.16;100.00;58328.31;5034880;28;20046;-60
2021/12/28 02:52:38;;;;;;;17.73;9.05;;;;;;;-148.16;100.00;58328.31;5035553;28;20045;-60
2021/12/28 02:55:28;;;;;;;20.00;9.15;;;;;;;-148.16;100.00;58328.31;5034643;28;20049;-59
2021/12/28 02:58:25;;;;;;;16.83;8.35;;;;;;;-148.16;100.00;58328.31;5020641;28;20046;-60
2021/12/28 03:01:29;;;;;;;17.17;8.07;;;;;;;-148.16;100.00;58328.31;5034479;28;20050;-59
2021/12/28 03:04:14;;;;;;;16.38;7.75;;;;;;;-148.16;100.00;58328.31;5034364;28;20140;-61
2021/12/28 03:07:00;;;;;;;15.20;7.18;;;;;;;-148.16;100.00;58328.31;5034806;28;20045;-59
2021/12/28 03:09:46;;;;;;;16.92;8.38;;;;;;;-148.16;100.00;58328.31;5034737;28;20401;-59
2021/12/28 03:12:31;;;;;;;16.17;7.25;;;;;;;-148.16;100.00;58328.31;5034428;28;20071;-58
2021/12/28 03:15:17;;;;;;;17.95;8.25;;;;;;;-148.16;100.00;58328.31;5034229;28;20060;-60
2021/12/28 03:18:03;;;;;;;18.30;7.35;;;;;;;-148.16;100.00;58328.31;5034605;28;20481;-60
2021/12/28 03:20:49;;;;;;;16.25;8.32;;;;;;;-148.16;100.00;58328.31;5034218;28;20049;-59
2021/12/28 03:23:36;;;;;;;17.27;7.95;;;;;;;-148.16;100.00;58328.31;5040204;28;20196;-60
2021/12/28 03:26:22;;;;;;;17.40;7.68;;;;;;;-148.16;100.00;58328.31;5038817;28;20058;-59
2021/12/28 03:29:08;;;;;;;16.77;7.82;;;;;;;-148.16;100.00;58328.31;5033920;28;20401;-60
2021/12/28 03:31:54;;;;;;;16.58;7.47;;;;;;;-148.16;100.00;58328.31;5034174;28;20453;-60
2021/12/28 03:34:40;;;;;;;17.08;7.53;;;;;;;-148.16;100.00;58328.31;5034224;28;20097;-60
2021/12/28 03:37:26;;;;;;;15.55;8.05;;;;;;;-148.16;100.00;58328.31;5034198;28;20481;-60
2021/12/28 03:40:14;;;;;;;20.70;9.05;;;;;;;-148.16;100.00;58328.31;5032818;28;20481;-59
2021/12/28 03:43:00;;;;;;;17.45;8.05;;;;;;;-148.16;100.00;58328.31;5033100;28;20042;-60
2021/12/28 03:45:47;;;;;;;18.17;8.50;;;;;;;-148.16;100.00;58328.31;5033943;28;20049;-59
2021/12/28 03:48:33;;;;;;;21.30;7.93;;;;;;;-148.16;100.00;58328.31;5033345;28;20053;-60
2021/12/28 03:51:19;;;;;;;18.27;7.35;;;;;;;-148.16;100.00;58328.31;5033772;28;20053;-59
2021/12/28 03:54:05;;;;;;;17.65;8.50;;;;;;;-148.16;100.00;58328.31;5033387;28;20045;-59
2021/12/28 03:56:51;;;;;;;19.00;7.60;;;;;;;-148.16;100.00;58328.31;5033611;28;20037;-60
2021/12/28 03:59:38;;;;;;;17.95;8.10;;;;;;;-148.16;100.00;58328.31;5033544;28;20057;-60
2021/12/28 04:02:24;;;;;;;17.25;8.25;;;;;;;-148.16;100.00;58328.31;5033450;28;20049;-59
2021/12/28 04:05:11;;;;;;;13.80;6.85;;;;;;;-148.16;100.00;58328.31;5032109;28;20488;-59
2021/12/28 04:07:56;;;;;;;18.02;8.32;;;;;;;-148.16;100.00;58328.31;5033069;28;20057;-59
2021/12/28 04:10:54;;;;;;;18.80;8.27;;;;;;;-148.16;100.00;58328.31;5039195;28;20065;-59
2021/12/28 04:13:41;;;;;;;19.52;7.95;;;;;;;-148.16;100.00;58328.31;5033320;28;20053;-60
2021/12/28 04:16:28;;;;;;;19.90;7.95;;;;;;;-148.16;100.00;58328.31;5037968;28;20057;-60
2021/12/28 04:19:14;;;;;;;18.80;8.35;;;;;;;-148.16;100.00;58328.31;5033055;28;20045;-60
2021/12/28 04:22:00;;;;;;;17.80;8.45;;;;;;;-148.16;100.00;58328.31;5032181;28;20365;-60
2021/12/28 04:24:47;;;;;;;19.85;8.15;;;;;;;-148.16;100.00;58328.31;5033778;28;20041;-60
2021/12/28 04:27:32;;;;;;;17.35;8.27;;;;;;;-148.16;100.00;58328.31;5033092;28;20041;-59
2021/12/28 04:30:18;;;;;;;17.33;8.50;;;;;;;-148.16;100.00;58328.31;5033456;28;20057;-60
2021/12/28 04:33:04;;;;;;;19.20;7.65;;;;;;;-148.16;100.00;58328.31;5032146;28;20477;-61
2021/12/28 04:35:50;;;;;;;17.50;8.15;;;;;;;-148.16;100.00;58328.31;5032939;28;20045;-61
2021/12/28 04:38:37;;;;;;;15.23;8.40;;;;;;;-148.16;100.00;58328.31;5032932;28;20045;-59
2021/12/28 04:41:23;;;;;;;17.95;8.25;;;;;;;-148.16;100.00;58328.31;5032892;28;20045;-60
2021/12/28 04:44:12;;;;;;;16.80;7.60;;;;;;;-148.16;100.00;58328.31;5032581;28;20067;-60
2021/12/28 04:46:58;;;;;;;17.45;8.18;;;;;;;-148.16;100.00;58328.31;5031600;28;20393;-59
2021/12/28 04:49:46;;;;;;;19.30;8.98;;;;;;;-148.16;100.00;58328.31;5032651;28;20045;-59
2021/12/28 04:52:36;;;;;;;17.48;8.32;;;;;;;-148.16;100.00;58328.31;5031548;28;20485;-59
2021/12/28 04:55:21;;;;;;;16.17;7.95;;;;;;;-148.16;100.00;58328.31;5032507;28;20521;-59
2021/12/28 04:58:07;;;;;;;18.17;7.90;;;;;;;-148.16;100.00;58328.31;5032448;28;20053;-59
2021/12/28 05:00:53;;;;;;;15.60;7.45;;;;;;;-148.16;100.00;58328.31;5032518;28;20045;-60
2021/12/28 05:03:39;;;;;;;19.02;8.15;;;;;;;-148.16;100.00;58328.31;5032372;28;20420;-59
2021/12/28 05:06:25;;;;;;;18.50;8.43;;;;;;;-148.16;100.00;58328.31;5031501;28;20045;-59
2021/12/28 05:09:12;;;;;;;16.02;7.85;;;;;;;-148.16;100.00;58328.31;5031386;28;20058;-61
2021/12/28 05:11:58;;;;;;;19.52;8.43;;;;;;;-148.16;100.00;58328.31;5031730;28;20045;-60
2021/12/28 05:14:43;;;;;;;17.90;7.97;;;;;;;-148.16;100.00;58328.31;5032715;28;20045;-61
2021/12/28 05:17:29;;;;;;;17.25;8.38;;;;;;;-148.16;100.00;58328.31;5032426;28;20046;-60
2021/12/28 05:20:16;;;;;;;16.98;8.35;;;;;;;-148.16;100.00;58328.31;5031632;28;20038;-61
2021/12/28 05:23:02;;;;;;;18.65;8.30;;;;;;;-148.16;100.00;58328.31;5032270;28;20049;-60
2021/12/28 05:25:47;;;;;;;14.93;7.55;;;;;;;-148.16;100.00;58328.31;5032168;28;20050;-61
2021/12/28 05:28:33;;;;;;;13.23;6.63;;;;;;;-148.16;100.00;58328.31;5032444;28;20045;-60
2021/12/28 05:31:19;;;;;;;17.63;7.43;;;;;;;-148.16;100.00;58328.31;5037193;28;20042;-60
2021/12/28 05:34:07;;;;;;;14.98;7.43;;;;;;;-148.16;100.00;58328.31;5031684;28;20484;-60
2021/12/28 05:36:53;;;;;;;18.00;9.35;;;;;;;-148.16;100.00;58328.31;5031707;28;20053;-60
2021/12/28 05:39:39;;;;;;;16.15;7.45;;;;;;;-148.16;100.00;58328.31;5032306;28;20050;-60
2021/12/28 05:42:25;;;;;;;13.93;8.07;;;;;;;-148.16;100.00;58328.31;5032121;28;20108;-60
2021/12/28 05:45:12;;;;;;;15.75;7.35;;;;;;;-148.16;100.00;58328.31;5032090;28;20049;-60
2021/12/28 05:47:58;;;;;;;16.73;7.80;;;;;;;-148.16;100.00;58328.31;5037115;28;20492;-60
2021/12/28 05:50:44;;;;;;;14.73;7.47;;;;;;;-148.16;100.00;58328.31;5032256;28;20046;-60
2021/12/28 05:53:29;;;;;;;20.40;8.05;;;;;;;-148.16;100.00;58328.31;5031459;28;20049;-59
2021/12/28 05:56:15;;;;;;;17.35;8.05;;;;;;;-148.16;100.00;58328.31;5032019;28;20049;-60
2021/12/28 05:59:01;;;;;;;14.50;7.65;;;;;;;-148.16;100.00;58328.31;5032312;28;20397;-60
2021/12/28 06:01:46;;;;;;;14.75;7.65;;;;;;;-148.16;100.00;58328.31;5032332;28;20045;-60
2021/12/28 06:04:32;;;;;;;16.30;8.23;;;;;;;-148.16;100.00;58328.31;5032027;28;20412;-60
2021/12/28 06:07:18;;;;;;;14.60;7.55;;;;;;;-148.16;100.00;58328.31;5031960;28;20045;-60
2021/12/28 06:10:05;;;;;;;18.48;8.35;;;;;;;-148.16;100.00;58328.31;5031898;28;20054;-60
2021/12/28 06:12:51;;;;;;;19.00;8.30;;;;;;;-148.16;100.00;58328.31;5040692;28;20049;-60
2021/12/28 06:15:37;;;;;;;18.42;7.57;;;;;;;-148.16;100.00;58328.31;5035536;28;20053;-60
2021/12/28 06:18:23;;;;;;;14.30;8.30;;;;;;;-148.16;100.00;58328.31;5040188;28;20053;-60
2021/12/28 06:21:08;;;;;;;23.35;8.98;;;;;;;-148.16;100.00;58328.31;5040408;28;20045;-60
2021/12/28 06:23:54;;;;;;;20.98;8.68;;;;;;;-148.16;100.00;58328.31;5040533;28;20045;-61
2021/12/28 06:26:40;;;;;;;20.58;9.48;;;;;;;-148.16;100.00;58328.31;5035237;28;20049;-60
2021/12/28 06:29:26;;;;;;;17.58;8.75;;;;;;;-148.16;100.00;58328.31;5034215;28;20401;-60
2021/12/28 06:32:12;;;;;;;17.75;8.73;;;;;;;-148.16;100.00;58328.31;5035360;28;20049;-60
2021/12/28 06:34:57;;;;;;;20.67;8.95;;;;;;;-148.16;100.00;58328.31;5035167;28;20481;-60
2021/12/28 06:37:43;;;;;;;18.08;9.23;;;;;;;-148.16;100.00;58328.31;5035282;28;20049;-59
2021/12/28 06:40:29;;;;;;;19.50;8.95;;;;;;;-148.16;100.00;58328.31;5034874;28;20420;-60
2021/12/28 06:43:15;;;;;;;18.35;9.63;;;;;;;-148.16;100.00;58328.31;5040609;28;20037;-59
2021/12/28 06:46:01;;;;;;;18.50;8.98;;;;;;;-148.16;100.00;58328.31;5039567;28;20045;-61
2021/12/28 06:48:47;;;;;;;19.27;8.68;;;;;;;-148.16;100.00;58328.31;5033902;28;20385;-59
2021/12/28 06:51:33;;;;;;;17.73;8.65;;;;;;;-148.16;100.00;58328.31;5040694;28;20053;-59
2021/12/28 06:54:19;;;;;;;17.40;8.73;;;;;;;-148.16;100.00;58328.31;5034755;28;20049;-59
2021/12/28 06:57:09;;;;;;;20.10;8.73;;;;;;;-148.16;100.00;58328.31;5034981;28;20049;-59
2021/12/28 06:59:55;;;;;;;15.02;7.93;;;;;;;-148.16;100.00;58328.31;5034424;28;20053;-62
2021/12/28 07:02:41;;;;;;;18.48;9.45;;;;;;;-148.16;100.00;58328.31;5034669;28;20042;-60
2021/12/28 07:05:28;;;;;;;17.92;9.18;;;;;;;-148.16;100.00;58328.31;5034364;28;20049;-59
2021/12/28 07:08:14;;;;;;;16.30;8.23;;;;;;;-148.16;100.00;58328.31;5038456;28;20062;-59
2021/12/28 07:11:00;;;;;;;19.25;8.90;;;;;;;-148.16;100.00;58328.31;5039356;28;20049;-60
2021/12/28 07:13:47;;;;;;;21.25;10.07;;;;;;;-148.16;100.00;58328.31;5034685;28;20046;-59
2021/12/28 07:16:33;;;;;;;19.15;7.85;;;;;;;-148.16;100.00;58328.31;5035069;28;20053;-60
2021/12/28 07:19:19;;;;;;;20.25;10.05;;;;;;;-148.16;100.00;58328.31;5034585;28;20477;-60
2021/12/28 07:22:04;;;;;;;18.58;8.93;;;;;;;-148.16;100.00;58328.31;5024191;28;20105;-60
2021/12/28 07:24:50;;;;;;;22.90;10.05;;;;;;;-148.16;100.00;58328.31;5033393;28;20041;-60
2021/12/28 07:27:38;;;;;;;18.98;8.68;;;;;;;-148.16;100.00;58328.31;5034477;28;20480;-60
2021/12/28 07:30:23;;;;;;;20.23;8.68;;;;;;;-148.16;100.00;58328.31;5034358;28;20506;-60
2021/12/28 07:33:09;;;;;;;16.30;8.50;;;;;;;-148.16;100.00;58328.31;5033308;28;20057;-60
2021/12/28 07:35:55;;;;;;;17.08;8.30;;;;;;;-148.16;100.00;58328.31;5034054;28;20469;-60
2021/12/28 07:38:41;;;;;;;17.58;9.15;;;;;;;-148.16;100.00;58328.31;5033933;28;20053;-60
2021/12/28 07:41:27;;;;;;;20.35;9.73;;;;;;;-148.16;100.00;58328.31;5033905;28;20045;-59
2021/12/28 07:44:13;;;;;;;19.35;8.07;;;;;;;-148.16;100.00;58328.31;5038438;28;20041;-61
2021/12/28 07:46:59;;;;;;;20.38;8.98;;;;;;;-148.16;100.00;58328.31;5018841;28;20049;-60
2021/12/28 07:49:45;;;;;;;16.67;8.43;;;;;;;-148.16;100.00;58328.31;5038627;28;20045;-61
2021/12/28 07:52:31;;;;;;;17.55;8.50;;;;;;;-148.16;100.00;58328.31;5033657;28;20057;-60
2021/12/28 07:55:16;;;;;;;18.60;8.88;;;;;;;-148.16;100.00;58328.31;5033449;28;20050;-60
2021/12/28 07:58:03;;;;;;;14.95;7.57;;;;;;;-148.16;100.00;58328.31;5033591;28;20049;-61
2021/12/28 08:00:49;;;;;;;18.60;8.32;;;;;;;-148.16;100.00;58328.31;5033439;28;20049;-60
2021/12/28 08:03:35;;;;;;;19.15;9.15;;;;;;;-148.16;100.00;58328.31;5033466;28;20049;-60
2021/12/28 08:06:20;;;;;;;18.42;7.90;;;;;;;-148.16;100.00;58328.31;5033319;28;20050;-64
2021/12/28 08:09:06;;;;;;;21.83;8.43;;;;;;;-148.16;100.00;58328.31;5033237;28;20049;-59
2021/12/28 08:11:52;;;;;;;15.73;7.78;;;;;;;-148.16;100.00;58328.31;5033487;28;20049;-60
2021/12/28 08:14:38;;;;;;;15.68;7.93;;;;;;;-148.16;100.00;58328.31;5032239;28;20408;-60
2021/12/28 08:17:25;;;;;;;14.55;7.22;;;;;;;-148.16;100.00;58328.31;5033024;28;20046;-60
2021/12/28 08:20:12;;;;;;;14.57;6.72;;;;;;;-148.16;100.00;58328.31;5033123;28;20049;-59
2021/12/28 08:22:59;;;;;;;14.25;7.22;;;;;;;-148.16;100.00;58328.31;5032961;28;20132;-59
2021/12/28 08:25:45;;;;;;;13.80;6.53;;;;;;;-148.16;100.00;58328.31;5033038;28;20045;-60
2021/12/28 08:28:31;;;;;;;17.10;7.40;;;;;;;-148.16;100.00;58328.31;5023956;28;20046;-60
2021/12/28 08:31:18;;;;;;;11.50;6.68;;;;;;;-148.16;100.00;58328.31;5031825;28;20136;-62
2021/12/28 08:34:04;;;;;;;17.92;7.22;;;;;;;-148.16;100.00;58328.31;5032674;28;20042;-59
2021/12/28 08:36:49;;;;;;;15.48;7.50;;;;;;;-148.16;100.00;58328.31;5032806;28;20057;-59
2021/12/28 08:39:35;;;;;;;16.55;7.40;;;;;;;-148.16;100.00;58328.31;5032735;28;20054;-60
2021/12/28 08:42:22;;;;;;;15.95;6.47;;;;;;;-148.16;100.00;58328.31;5032680;28;20045;-60
2021/12/28 08:45:09;;;;;;;17.02;7.25;;;;;;;-148.16;100.00;58328.31;5032957;28;20045;-60
2021/12/28 08:47:55;;;;;;;15.10;6.95;;;;;;;-148.16;100.00;58328.31;5032620;28;20493;-60
2021/12/28 08:50:42;;;;;;;11.13;6.68;;;;;;;-148.16;100.00;58328.31;5031693;28;20041;-61
2021/12/28 08:53:28;;;;;;;12.32;5.55;;;;;;;-148.16;100.00;58328.31;5032552;28;20049;-60
2021/12/28 08:56:14;;;;;;;13.55;6.00;;;;;;;-148.16;100.00;58328.31;5031819;28;20053;-60
2021/12/28 08:59:00;;;;;;;13.20;5.80;;;;;;;-148.16;100.00;58328.31;5032740;28;20069;-60
2021/12/28 09:01:48;;;;;;;12.35;6.10;;;;;;;-148.16;100.00;58328.31;5032488;28;20405;-60
2021/12/28 09:04:39;;;;;;;13.13;5.43;;;;;;;-148.16;100.00;58328.31;5032511;28;20041;-60
2021/12/28 09:07:25;;;;;;;16.95;6.90;;;;;;;-148.16;100.00;58328.31;5032521;28;20049;-60
2021/12/28 09:10:11;;;;;;;13.48;5.78;;;;;;;-148.16;100.00;58328.31;5031192;28;20045;-60
2021/12/28 09:12:57;;;;;;;13.57;5.85;;;;;;;-148.16;100.00;58328.31;5032333;28;20049;-61
2021/12/28 09:15:43;;;;;;;15.00;6.60;;;;;;;-148.16;100.00;58328.31;5032829;28;20045;-60
2021/12/28 09:18:29;;;;;;;14.02;6.10;;;;;;;-148.16;100.00;58328.31;5032283;28;20050;-60
2021/12/28 09:21:15;;;;;;;10.93;5.65;;;;;;;-148.16;100.00;58328.31;5023136;28;20380;-60
2021/12/28 09:24:01;;;;;;;10.65;5.63;;;;;;;-148.16;100.00;58328.31;5032322;28;20054;-60
2021/12/28 09:26:47;;;;;;;14.40;6.22;;;;;;;-148.16;100.00;58328.31;5032653;28;20050;-61
2021/12/28 09:29:33;;;;;;;14.43;6.50;;;;;;;-148.16;100.00;58328.31;5032442;28;20046;-60
2021/12/28 09:32:20;;;;;;;11.18;5.75;;;;;;;-148.16;100.00;58328.31;5036888;28;20049;-59
2021/12/28 09:35:06;;;;;;;11.13;5.57;;;;;;;-148.16;100.00;58328.31;5032483;28;20054;-60
2021/12/28 09:37:52;;;;;;;11.77;5.15;;;;;;;-148.16;100.00;58328.31;5032349;28;20049;-61
2021/12/28 09:40:38;;;;;;;13.52;6.25;;;;;;;-148.16;100.00;58328.31;5031345;28;20045;-60
2021/12/28 09:43:24;;;;;;;12.25;5.78;;;;;;;-148.16;100.00;58328.31;5030967;28;20045;-59
2021/12/28 09:46:11;;;;;;;13.35;5.97;;;;;;;-148.16;100.00;58328.31;5032751;28;20149;-60
2021/12/28 09:48:56;;;;;;;13.90;6.15;;;;;;;-148.16;100.00;58328.31;5034952;28;20053;-60
2021/12/28 09:51:44;;;;;;;14.93;6.50;;;;;;;-148.16;100.00;58328.31;5036039;28;20477;-60
2021/12/28 09:54:31;;;;;;;14.60;6.28;;;;;;;-148.16;100.00;58328.31;5036514;28;20377;-60
2021/12/28 09:57:18;;;;;;;13.27;6.47;;;;;;;-148.16;100.00;58328.31;5035756;28;20045;-60
2021/12/28 10:00:07;;;;;;;13.05;6.00;;;;;;;-148.16;100.00;58328.31;5035755;28;20049;-60
2021/12/28 10:02:53;;;;;;;13.55;6.80;;;;;;;-148.16;100.00;58328.31;5035814;28;20049;-60
2021/12/28 10:05:39;;;;;;;18.40;6.85;;;;;;;-148.16;100.00;58328.31;5021178;28;20050;-60
2021/12/28 10:08:26;;;;;;;15.63;7.40;;;;;;;-148.16;100.00;58328.31;5035468;28;20061;-60
2021/12/28 10:11:13;;;;;;;14.10;6.53;;;;;;;-148.16;100.00;58328.31;5035424;28;20465;-60
2021/12/28 10:14:26;;;;;;;13.85;6.97;;;;;;;-148.16;100.00;58328.31;5035655;28;20045;-59
2021/12/28 10:17:23;;;;;;;17.23;7.80;;;;;;;-148.16;100.00;58328.31;5034510;28;20508;-60
2021/12/28 10:20:12;;;;;;;13.40;6.88;;;;;;;-148.16;100.00;58328.31;5035386;28;20038;-59
2021/12/28 10:23:04;;;;;;;14.20;7.30;;;;;;;-148.16;100.00;58328.31;5035266;28;20464;-59
2021/12/28 10:26:05;;;;;;;17.67;7.97;;;;;;;-148.16;100.00;58328.31;5034668;28;20054;-59
2021/12/28 10:28:50;;;;;;;17.83;7.20;;;;;;;-148.16;100.00;58328.31;5040143;28;20049;-59
2021/12/28 10:31:36;;;;;;;16.90;7.35;;;;;;;-148.16;100.00;58328.31;5035485;28;20397;-60
2021/12/28 10:34:22;;;;;;;14.75;6.65;;;;;;;-148.16;100.00;58328.31;5035009;28;20053;-60
2021/12/28 10:37:19;;;;;;;18.35;7.68;;;;;;;-148.16;100.00;58328.31;5035031;28;20434;-59
2021/12/28 10:40:11;;;;;;;18.70;7.07;;;;;;;-148.16;100.00;58328.31;5035315;28;20049;-60
2021/12/28 10:43:17;;;;;;;17.27;7.75;;;;;;;-148.16;100.00;58328.31;5034075;28;20489;-60
2021/12/28 10:46:10;;;;;;;15.82;6.63;;;;;;;-148.16;100.00;58328.31;5035121;28;20057;-59
2021/12/28 10:49:00;;;;;;;15.13;6.97;;;;;;;-148.16;100.00;58328.31;5034761;28;20045;-60
2021/12/28 10:51:46;;;;;;;17.23;7.90;;;;;;;-148.16;100.00;58328.31;5034868;28;20057;-59
2021/12/28 10:54:32;;;;;;;18.70;7.90;;;;;;;-148.16;100.00;58328.31;5034748;28;20098;-60
2021/12/28 10:57:19;;;;;;;16.73;7.22;;;;;;;-148.16;100.00;58328.31;5034506;28;20049;-59
2021/12/28 11:00:26;;;;;;;19.77;8.50;;;;;;;-148.16;100.00;58328.31;5035181;28;20038;-60
2021/12/28 11:03:12;;;;;;;14.90;7.55;;;;;;;-148.16;100.00;58328.31;5034564;28;20045;-60
2021/12/28 11:05:59;;;;;;;19.98;7.93;;;;;;;-148.16;100.00;58328.31;5019548;28;20396;-60
2021/12/28 11:08:49;;;;;;;15.10;7.18;;;;;;;-148.16;100.00;58328.31;5034259;28;20049;-60
2021/12/28 11:11:36;;;;;;;16.50;7.05;;;;;;;-148.16;100.00;58328.31;5033205;28;20488;-60
2021/12/28 11:14:28;;;;;;;18.42;7.47;;;;;;;-148.16;100.00;58328.31;5025273;28;20072;-60
2021/12/28 11:17:13;;;;;;;18.90;7.70;;;;;;;-148.16;100.00;58328.31;5034303;28;20045;-60
2021/12/28 11:19:59;;;;;;;16.30;7.18;;;;;;;-148.16;100.00;58328.31;5038708;28;20053;-60
2021/12/28 11:23:11;;;;;;;17.58;6.88;;;;;;;-148.16;100.00;58328.31;5034178;28;20045;-60
2021/12/28 11:26:09;;;;;;;18.77;7.85;;;;;;;-148.16;100.00;58328.31;5040397;28;20041;-60
2021/12/28 11:29:08;;;;;;;14.20;7.18;;;;;;;-148.16;100.00;58328.31;5034142;28;20484;-61
2021/12/28 11:32:01;;;;;;;15.23;7.28;;;;;;;-148.16;100.00;58328.31;5034044;28;20057;-60
2021/12/28 11:34:48;;;;;;;16.25;7.10;;;;;;;-148.16;100.00;58328.31;5034174;28;20065;-60
2021/12/28 11:37:34;;;;;;;17.83;7.45;;;;;;;-148.16;100.00;58328.31;5033019;28;20045;-60
2021/12/28 11:40:20;;;;;;;18.17;6.43;;;;;;;-148.16;100.00;58328.31;5032969;28;20045;-60
2021/12/28 11:43:06;;;;;;;22.58;8.27;;;;;;;-148.16;100.00;58328.31;5033994;28;20049;-60
2021/12/28 11:45:53;;;;;;;17.23;7.22;;;;;;;-148.16;100.00;58328.31;5033837;28;20049;-59
2021/12/28 11:48:40;;;;;;;19.33;7.70;;;;;;;-148.16;100.00;58328.31;5033652;28;20488;-59
2021/12/28 11:51:26;;;;;;;18.30;7.32;;;;;;;-148.16;100.00;58328.31;5033698;28;20045;-59
2021/12/28 11:54:14;;;;;;;17.00;7.40;;;;;;;-148.16;100.00;58328.31;5032681;28;20516;-59
2021/12/28 11:57:07;;;;;;;21.67;8.00;;;;;;;-148.16;100.00;58328.31;5033692;28;20488;-59
2021/12/28 11:59:59;;;;;;;20.10;7.43;;;;;;;-148.16;100.00;58328.31;5032551;28;20054;-60
2021/12/28 12:02:52;;;;;;;18.67;7.97;;;;;;;-148.16;100.00;58328.31;5033153;28;20053;-59
2021/12/28 12:05:44;;;;;;;17.23;7.07;;;;;;;-148.16;100.00;58328.31;5033250;28;20050;-60
2021/12/28 12:08:30;;;;;;;18.27;7.43;;;;;;;-148.16;100.00;58328.31;5032629;28;20057;-60
2021/12/28 12:11:16;;;;;;;17.25;6.28;;;;;;;-148.16;100.00;58328.31;5031980;28;20053;-59
2021/12/28 12:14:02;;;;;;;16.15;7.00;;;;;;;-148.16;100.00;58328.31;5039213;28;20057;-60
2021/12/28 12:17:37;;;;;;;14.80;5.95;;;;;;;-148.16;100.00;58328.31;5033239;28;20049;-60
2021/12/28 12:20:30;;;;;;;18.13;7.97;;;;;;;-148.16;100.00;58328.31;5033184;28;20053;-60
2021/12/28 12:23:25;;;;;;;14.13;6.80;;;;;;;-148.16;100.00;58328.31;5033159;28;20041;-60
2021/12/28 12:26:24;;;;;;;19.77;8.18;;;;;;;-148.16;100.00;58328.31;5038989;28;20041;-60
2021/12/28 12:29:21;;;;;;;18.73;7.50;;;;;;;-148.16;100.00;58328.31;5032936;28;20086;-61
2021/12/28 12:32:07;;;;;;;16.90;6.72;;;;;;;-148.16;100.00;58328.31;5032949;28;20041;-60
2021/12/28 12:35:13;;;;;;;18.20;8.07;;;;;;;-148.16;100.00;58328.31;5032993;28;20050;-60